Time;durP1;ratioP1;P1;durP2;ratioP2;P2;SDS_P1;SDS_P2;PMS_P1;PMS_P2;Temp;Humidity;BMP_temperature;BMP_pressure;BME280_temperature;BME280_humidity;BME280_pressure;Samples;Min_cycle;Max_cycle;Signal;HPM_P1;HPM_P2
2023/08/17 00:01:22;;;;;;;5.20;2.67;;;;;;;;;;5042673;28;21014;-78
2023/08/17 00:03:48;;;;;;;3.20;2.80;;;;;;;;;;5042743;28;20828;-78
2023/08/17 00:06:15;;;;;;;7.07;2.97;;;;;;;;;;5042265;28;20483;-79
2023/08/17 00:08:42;;;;;;;3.63;2.90;;;;;;;;;;5039993;28;20464;-78
2023/08/17 00:11:08;;;;;;;8.27;2.50;;;;;;;;;;5043864;28;21010;-78
2023/08/17 00:13:35;;;;;;;5.50;2.90;;;;;;;;;;5038979;28;20510;-79
2023/08/17 00:16:04;;;;;;;7.20;3.37;;;;;;;;;;5043784;28;20472;-79
2023/08/17 00:18:32;;;;;;;6.77;3.17;;;;;;;;;;5041408;28;20905;-79
2023/08/17 00:20:58;;;;;;;3.30;2.70;;;;;;;;;;5041401;28;20482;-79
2023/08/17 00:23:24;;;;;;;5.33;3.57;;;;;;;;;;5041150;28;20472;-79
2023/08/17 00:25:52;;;;;;;9.27;3.30;;;;;;;;;;5043940;28;20475;-78
2023/08/17 00:28:19;;;;;;;7.50;2.50;;;;;;;;;;5044957;28;20550;-78
2023/08/17 00:30:45;;;;;;;9.60;3.17;;;;;;;;;;5044030;28;20486;-79
2023/08/17 00:33:12;;;;;;;3.33;2.50;;;;;;;;;;5039663;28;20913;-78
2023/08/17 00:35:40;;;;;;;6.50;3.23;;;;;;;;;;5042321;28;21413;-79
2023/08/17 00:38:06;;;;;;;4.10;2.33;;;;;;;;;;5042690;28;20455;-78
2023/08/17 00:40:32;;;;;;;4.00;2.30;;;;;;;;;;5042009;28;20476;-78
2023/08/17 00:42:59;;;;;;;20.67;3.07;;;;;;;;;;5043110;28;20484;-78
2023/08/17 00:45:27;;;;;;;5.67;3.47;;;;;;;;;;5042899;28;20479;-79
2023/08/17 00:47:54;;;;;;;4.07;3.13;;;;;;;;;;5043465;28;20459;-79
2023/08/17 00:50:21;;;;;;;6.00;4.03;;;;;;;;;;5041530;28;20490;-78
2023/08/17 00:52:49;;;;;;;7.10;2.97;;;;;;;;;;5043940;28;20483;-78
2023/08/17 00:55:15;;;;;;;7.57;3.20;;;;;;;;;;5045997;28;20475;-79
2023/08/17 00:57:42;;;;;;;7.67;2.77;;;;;;;;;;5042136;28;20470;-79
2023/08/17 01:00:09;;;;;;;6.70;3.00;;;;;;;;;;5039091;28;20480;-79
2023/08/17 01:02:36;;;;;;;8.13;3.13;;;;;;;;;;5038476;28;20461;-78
2023/08/17 01:05:02;;;;;;;4.50;2.90;;;;;;;;;;5040236;28;20480;-78
2023/08/17 01:07:29;;;;;;;5.90;3.30;;;;;;;;;;5043232;28;20969;-78
2023/08/17 01:09:57;;;;;;;6.33;3.50;;;;;;;;;;5041720;28;20479;-79
2023/08/17 01:12:30;;;;;;;6.00;3.60;;;;;;;;;;5042911;28;20491;-79
2023/08/17 01:15:00;;;;;;;6.43;3.20;;;;;;;;;;5044061;28;20475;-79
2023/08/17 01:17:30;;;;;;;7.37;3.47;;;;;;;;;;5042523;28;20480;-79
2023/08/17 01:19:57;;;;;;;8.10;3.60;;;;;;;;;;5045096;28;20487;-78
2023/08/17 01:22:23;;;;;;;5.37;3.40;;;;;;;;;;5047905;28;20867;-79
2023/08/17 01:24:56;;;;;;;8.60;3.40;;;;;;;;;;5047717;28;20478;-79
2023/08/17 01:27:23;;;;;;;5.83;3.60;;;;;;;;;;5044453;28;20463;-78
2023/08/17 01:29:49;;;;;;;7.53;4.00;;;;;;;;;;5041190;28;20464;-79
2023/08/17 01:32:19;;;;;;;5.10;3.47;;;;;;;;;;5045652;28;20492;-79
2023/08/17 01:34:48;;;;;;;5.27;3.67;;;;;;;;;;5049216;28;20527;-79
2023/08/17 01:37:16;;;;;;;4.17;3.13;;;;;;;;;;5047373;28;20474;-78
2023/08/17 01:39:44;;;;;;;6.57;3.77;;;;;;;;;;5049387;28;20460;-78
2023/08/17 01:42:13;;;;;;;4.80;3.73;;;;;;;;;;5044617;28;20997;-78
2023/08/17 01:44:39;;;;;;;8.33;3.60;;;;;;;;;;5045652;28;20468;-79
2023/08/17 01:47:06;;;;;;;9.50;3.23;;;;;;;;;;5045318;28;20460;-78
2023/08/17 01:49:32;;;;;;;4.00;2.90;;;;;;;;;;5047577;28;20467;-78
2023/08/17 01:51:58;;;;;;;5.07;3.00;;;;;;;;;;5044556;28;20525;-79
2023/08/17 01:54:26;;;;;;;3.47;2.60;;;;;;;;;;5046889;28;20460;-78
2023/08/17 01:56:53;;;;;;;7.93;3.50;;;;;;;;;;5048008;28;20456;-78
2023/08/17 01:59:20;;;;;;;6.63;3.20;;;;;;;;;;5044111;28;20450;-79
2023/08/17 02:01:47;;;;;;;4.73;2.87;;;;;;;;;;5046954;28;20476;-78
2023/08/17 02:04:13;;;;;;;8.80;5.23;;;;;;;;;;5043294;28;20459;-79
2023/08/17 02:06:39;;;;;;;4.70;2.87;;;;;;;;;;5047959;28;20460;-79
2023/08/17 02:09:06;;;;;;;4.30;2.80;;;;;;;;;;5048192;28;20436;-80
2023/08/17 02:11:32;;;;;;;7.77;3.63;;;;;;;;;;5046483;28;20480;-78
2023/08/17 02:13:59;;;;;;;8.10;3.37;;;;;;;;;;5046894;28;20460;-78
2023/08/17 02:16:26;;;;;;;6.30;3.43;;;;;;;;;;5044831;28;20479;-79
2023/08/17 02:18:53;;;;;;;6.63;3.27;;;;;;;;;;5047550;28;20460;-78
2023/08/17 02:21:19;;;;;;;5.03;3.07;;;;;;;;;;5047042;28;20485;-79
2023/08/17 02:23:45;;;;;;;8.17;3.93;;;;;;;;;;5045229;28;20453;-79
2023/08/17 02:26:12;;;;;;;5.47;2.67;;;;;;;;;;5046342;28;20882;-78
2023/08/17 02:28:40;;;;;;;6.13;2.87;;;;;;;;;;5041300;28;20817;-79
2023/08/17 02:31:06;;;;;;;7.67;3.47;;;;;;;;;;5043878;28;20469;-78
2023/08/17 02:33:36;;;;;;;6.30;3.03;;;;;;;;;;5045307;28;20479;-80
2023/08/17 02:36:03;;;;;;;3.27;2.53;;;;;;;;;;5042285;28;20989;-79
2023/08/17 02:38:30;;;;;;;6.27;2.97;;;;;;;;;;5044830;28;20895;-78
2023/08/17 02:40:56;;;;;;;6.37;3.30;;;;;;;;;;5044445;28;20474;-79
2023/08/17 02:43:23;;;;;;;2.97;2.27;;;;;;;;;;5041711;28;20487;-79
2023/08/17 02:45:49;;;;;;;4.80;2.60;;;;;;;;;;5044103;28;20905;-79
2023/08/17 02:48:15;;;;;;;5.87;3.23;;;;;;;;;;5048181;28;20464;-79
2023/08/17 02:50:43;;;;;;;11.47;3.23;;;;;;;;;;5045162;28;20476;-78
2023/08/17 02:53:10;;;;;;;8.23;3.23;;;;;;;;;;5046761;28;20495;-79
2023/08/17 02:55:37;;;;;;;3.17;2.63;;;;;;;;;;5043121;28;20472;-78
2023/08/17 02:58:03;;;;;;;7.03;3.57;;;;;;;;;;5047248;28;20966;-78
2023/08/17 03:00:30;;;;;;;6.47;3.20;;;;;;;;;;5041332;28;20546;-78
2023/08/17 03:02:56;;;;;;;6.83;2.57;;;;;;;;;;5045593;28;20471;-79
2023/08/17 03:05:22;;;;;;;7.33;3.70;;;;;;;;;;5043728;28;20845;-78
2023/08/17 03:07:50;;;;;;;4.37;2.70;;;;;;;;;;5044923;28;20436;-78
2023/08/17 03:10:16;;;;;;;2.80;2.33;;;;;;;;;;5045253;28;20482;-78
2023/08/17 03:12:43;;;;;;;4.33;2.70;;;;;;;;;;5044237;28;20484;-79
2023/08/17 03:15:10;;;;;;;12.07;3.43;;;;;;;;;;5044825;28;20463;-79
2023/08/17 03:17:36;;;;;;;6.93;2.70;;;;;;;;;;5046159;28;20476;-78
2023/08/17 03:20:05;;;;;;;3.33;2.70;;;;;;;;;;5042818;28;20476;-79
2023/08/17 03:22:32;;;;;;;7.27;2.47;;;;;;;;;;5041988;28;20563;-79
2023/08/17 03:25:00;;;;;;;3.50;2.87;;;;;;;;;;5043551;28;20478;-79
2023/08/17 03:27:26;;;;;;;7.93;2.60;;;;;;;;;;5041045;28;20471;-78
2023/08/17 03:29:52;;;;;;;8.00;3.43;;;;;;;;;;5046177;28;20475;-79
2023/08/17 03:32:18;;;;;;;7.57;3.07;;;;;;;;;;5042176;28;20492;-79
2023/08/17 03:34:45;;;;;;;4.93;2.60;;;;;;;;;;5041460;28;20484;-79
2023/08/17 03:37:11;;;;;;;5.50;2.80;;;;;;;;;;5042427;28;20461;-79
2023/08/17 03:39:38;;;;;;;3.70;2.70;;;;;;;;;;5044713;28;20438;-79
2023/08/17 03:42:06;;;;;;;6.17;2.40;;;;;;;;;;5038648;28;20476;-78
2023/08/17 03:44:32;;;;;;;5.33;2.63;;;;;;;;;;5042685;28;20467;-78
2023/08/17 03:46:58;;;;;;;6.30;3.30;;;;;;;;;;5045759;28;20846;-78
2023/08/17 03:49:25;;;;;;;4.13;3.30;;;;;;;;;;5044509;28;20996;-78
2023/08/17 03:51:51;;;;;;;5.47;2.37;;;;;;;;;;5038892;28;20484;-79
2023/08/17 03:54:18;;;;;;;8.47;2.67;;;;;;;;;;5043741;28;20851;-79
2023/08/17 03:56:44;;;;;;;4.73;2.70;;;;;;;;;;5044844;28;20848;-78
2023/08/17 03:59:12;;;;;;;4.17;2.60;;;;;;;;;;5044229;28;20958;-79
2023/08/17 04:01:38;;;;;;;5.57;2.00;;;;;;;;;;5043007;28;20471;-78
2023/08/17 04:04:05;;;;;;;3.80;2.80;;;;;;;;;;5040792;28;20453;-79
2023/08/17 04:06:31;;;;;;;7.73;3.40;;;;;;;;;;5043165;28;20475;-78
2023/08/17 04:08:58;;;;;;;4.27;2.20;;;;;;;;;;5044890;28;20458;-79
2023/08/17 04:11:24;;;;;;;5.30;2.63;;;;;;;;;;5042123;28;20480;-78
2023/08/17 04:13:50;;;;;;;9.17;2.90;;;;;;;;;;5043951;28;22195;-79
2023/08/17 04:16:18;;;;;;;10.77;3.30;;;;;;;;;;5043946;28;20472;-79
2023/08/17 04:18:44;;;;;;;6.00;2.77;;;;;;;;;;5046325;28;20456;-78
2023/08/17 04:21:11;;;;;;;4.50;2.60;;;;;;;;;;5047470;28;21181;-79
2023/08/17 04:23:37;;;;;;;7.73;2.90;;;;;;;;;;5044560;28;20465;-78
2023/08/17 04:26:03;;;;;;;5.13;3.10;;;;;;;;;;5041917;28;20525;-78
2023/08/17 04:28:31;;;;;;;8.20;3.40;;;;;;;;;;5039422;28;21057;-79
2023/08/17 04:30:58;;;;;;;4.37;2.93;;;;;;;;;;5041292;28;20511;-78
2023/08/17 04:33:25;;;;;;;3.77;3.00;;;;;;;;;;5045962;28;20490;-78
2023/08/17 04:35:52;;;;;;;4.27;2.67;;;;;;;;;;5040746;28;20479;-79
2023/08/17 04:38:18;;;;;;;4.07;2.70;;;;;;;;;;5043398;28;20982;-78
2023/08/17 04:40:44;;;;;;;4.40;2.40;;;;;;;;;;5044809;28;20468;-79
2023/08/17 04:43:11;;;;;;;5.70;3.27;;;;;;;;;;5042405;28;20476;-78
2023/08/17 04:45:38;;;;;;;4.80;2.17;;;;;;;;;;5042427;28;20470;-79
2023/08/17 04:48:05;;;;;;;3.70;2.40;;;;;;;;;;5043247;28;20830;-79
2023/08/17 04:50:34;;;;;;;4.97;3.70;;;;;;;;;;5044854;28;20476;-78
2023/08/17 04:53:00;;;;;;;4.00;3.30;;;;;;;;;;5044955;28;20479;-78
2023/08/17 04:55:28;;;;;;;4.50;3.13;;;;;;;;;;5049628;28;20477;-79
2023/08/17 04:57:55;;;;;;;5.03;2.90;;;;;;;;;;5043575;28;20467;-79
2023/08/17 05:00:27;;;;;;;5.90;2.43;;;;;;;;;;5043667;28;20468;-78
2023/08/17 05:02:53;;;;;;;5.40;2.90;;;;;;;;;;5047953;28;20502;-79
2023/08/17 05:05:20;;;;;;;5.23;3.03;;;;;;;;;;5045194;28;21005;-78
2023/08/17 05:07:47;;;;;;;6.17;3.00;;;;;;;;;;5048033;28;20836;-79
2023/08/17 05:10:14;;;;;;;4.50;3.00;;;;;;;;;;5046179;28;20463;-78
2023/08/17 05:12:40;;;;;;;8.63;2.83;;;;;;;;;;5045481;28;20487;-79
2023/08/17 05:15:07;;;;;;;4.00;3.00;;;;;;;;;;5047209;28;20830;-79
2023/08/17 05:17:33;;;;;;;2.73;2.53;;;;;;;;;;5047588;28;20974;-79
2023/08/17 05:20:00;;;;;;;7.23;2.93;;;;;;;;;;5044898;28;20848;-79
2023/08/17 05:22:26;;;;;;;7.10;2.67;;;;;;;;;;5047015;28;20861;-79
2023/08/17 05:24:54;;;;;;;3.83;2.67;;;;;;;;;;5048589;28;20476;-78
2023/08/17 05:27:20;;;;;;;3.00;2.70;;;;;;;;;;5046502;28;20460;-78
2023/08/17 05:29:46;;;;;;;4.60;2.90;;;;;;;;;;5044813;28;20475;-79
2023/08/17 05:32:13;;;;;;;6.53;3.67;;;;;;;;;;5047777;28;20491;-79
2023/08/17 05:34:39;;;;;;;3.20;2.90;;;;;;;;;;5045352;28;20998;-78
2023/08/17 05:37:06;;;;;;;4.60;3.17;;;;;;;;;;5047858;28;20467;-79
2023/08/17 05:39:32;;;;;;;8.60;3.57;;;;;;;;;;5042768;28;20463;-79
2023/08/17 05:42:00;;;;;;;3.70;2.53;;;;;;;;;;5049559;28;20484;-79
2023/08/17 05:44:26;;;;;;;4.20;3.10;;;;;;;;;;5043014;28;20459;-79
2023/08/17 05:46:53;;;;;;;7.07;4.73;;;;;;;;;;5046372;28;20460;-78
2023/08/17 05:49:19;;;;;;;10.30;3.53;;;;;;;;;;5045568;28;20471;-79
2023/08/17 05:51:46;;;;;;;5.10;3.77;;;;;;;;;;5043573;28;21139;-79
2023/08/17 05:54:13;;;;;;;5.40;3.53;;;;;;;;;;5045561;28;20888;-79
2023/08/17 05:56:44;;;;;;;7.07;3.50;;;;;;;;;;5049308;28;20461;-79
2023/08/17 05:59:12;;;;;;;6.97;4.27;;;;;;;;;;5046387;28;20468;-80
2023/08/17 06:01:38;;;;;;;4.10;3.70;;;;;;;;;;5042945;28;20845;-79
2023/08/17 06:04:05;;;;;;;4.73;3.37;;;;;;;;;;5046627;28;20462;-80
2023/08/17 06:06:31;;;;;;;6.27;3.63;;;;;;;;;;5045592;28;20981;-78
2023/08/17 06:08:57;;;;;;;4.83;3.30;;;;;;;;;;5043501;28;20427;-78
2023/08/17 06:11:24;;;;;;;4.60;3.70;;;;;;;;;;5047325;28;20479;-79
2023/08/17 06:13:51;;;;;;;5.40;3.40;;;;;;;;;;5045457;28;20994;-79
2023/08/17 06:16:19;;;;;;;4.33;3.43;;;;;;;;;;5045325;28;21022;-78
2023/08/17 06:18:46;;;;;;;10.07;4.10;;;;;;;;;;5044178;28;20457;-79
2023/08/17 06:21:12;;;;;;;6.33;3.70;;;;;;;;;;5041880;28;21032;-78
2023/08/17 06:23:38;;;;;;;6.03;4.17;;;;;;;;;;5041241;28;20484;-79
2023/08/17 06:26:05;;;;;;;4.40;3.23;;;;;;;;;;5043359;28;21033;-78
2023/08/17 06:28:31;;;;;;;6.97;3.90;;;;;;;;;;5045159;28;20961;-78
2023/08/17 06:30:58;;;;;;;9.80;3.80;;;;;;;;;;5045094;28;20487;-78
2023/08/17 06:33:25;;;;;;;5.83;3.70;;;;;;;;;;5046495;28;20487;-78
2023/08/17 06:35:52;;;;;;;5.73;3.60;;;;;;;;;;5040551;28;21156;-79
2023/08/17 06:38:18;;;;;;;4.77;3.93;;;;;;;;;;5043159;28;20464;-79
2023/08/17 06:40:45;;;;;;;6.53;4.30;;;;;;;;;;5048925;28;20479;-79
2023/08/17 06:43:12;;;;;;;6.73;4.40;;;;;;;;;;5042451;28;20553;-79
2023/08/17 06:45:38;;;;;;;6.60;4.50;;;;;;;;;;5045842;28;20479;-79
2023/08/17 06:48:05;;;;;;;3.90;3.13;;;;;;;;;;5041408;28;20494;-79
2023/08/17 06:50:32;;;;;;;4.97;3.47;;;;;;;;;;5044402;28;20901;-79
2023/08/17 06:52:59;;;;;;;4.40;3.63;;;;;;;;;;5045008;28;21016;-79
2023/08/17 06:55:25;;;;;;;5.17;3.20;;;;;;;;;;5045114;28;20469;-79
2023/08/17 06:57:52;;;;;;;5.27;4.00;;;;;;;;;;5045723;28;20464;-79
2023/08/17 07:00:20;;;;;;;5.30;4.10;;;;;;;;;;5043913;28;20481;-79
2023/08/17 07:02:46;;;;;;;8.53;3.50;;;;;;;;;;5043170;28;21084;-79
2023/08/17 07:05:13;;;;;;;6.33;3.43;;;;;;;;;;5044542;28;20487;-79
2023/08/17 07:07:42;;;;;;;5.33;3.73;;;;;;;;;;5046642;28;20455;-79
2023/08/17 07:10:08;;;;;;;4.60;3.40;;;;;;;;;;5045446;28;21037;-79
2023/08/17 07:12:35;;;;;;;4.87;3.50;;;;;;;;;;5041110;28;20483;-79
2023/08/17 07:15:01;;;;;;;8.13;3.27;;;;;;;;;;5044191;28;20471;-79
2023/08/17 07:17:28;;;;;;;5.27;3.93;;;;;;;;;;5044667;28;20822;-78
2023/08/17 07:19:54;;;;;;;4.03;3.53;;;;;;;;;;5041125;28;20476;-79
2023/08/17 07:22:20;;;;;;;4.10;3.80;;;;;;;;;;5044109;28;20534;-79
2023/08/17 07:24:48;;;;;;;7.70;4.20;;;;;;;;;;5041739;28;21016;-79
2023/08/17 07:27:14;;;;;;;3.50;3.20;;;;;;;;;;5044648;28;20464;-78
2023/08/17 07:29:41;;;;;;;5.00;3.70;;;;;;;;;;5043360;28;20469;-79
2023/08/17 07:32:07;;;;;;;8.03;3.73;;;;;;;;;;5042770;28;20861;-79
2023/08/17 07:34:34;;;;;;;5.23;3.50;;;;;;;;;;5045767;28;20524;-79
2023/08/17 07:37:00;;;;;;;7.47;3.77;;;;;;;;;;5040398;28;20447;-79
2023/08/17 07:39:26;;;;;;;6.50;4.03;;;;;;;;;;5044727;28;20992;-78
2023/08/17 07:41:54;;;;;;;4.50;3.57;;;;;;;;;;5043127;28;20981;-78
2023/08/17 07:44:21;;;;;;;7.00;4.10;;;;;;;;;;5041667;28;20945;-79
2023/08/17 07:46:47;;;;;;;6.97;4.40;;;;;;;;;;5042905;28;20459;-79
2023/08/17 07:49:14;;;;;;;5.37;4.10;;;;;;;;;;5040314;28;20463;-79
2023/08/17 07:51:40;;;;;;;7.87;4.00;;;;;;;;;;5044576;28;20510;-78
2023/08/17 07:54:06;;;;;;;4.20;3.50;;;;;;;;;;5045051;28;20871;-78
2023/08/17 07:56:33;;;;;;;6.47;3.80;;;;;;;;;;5043043;28;20461;-79
2023/08/17 07:59:00;;;;;;;4.10;3.70;;;;;;;;;;5041072;28;20457;-78
2023/08/17 08:01:27;;;;;;;6.67;4.40;;;;;;;;;;5042290;28;20479;-79
2023/08/17 08:03:56;;;;;;;5.73;4.63;;;;;;;;;;5042119;28;20452;-79
2023/08/17 08:06:23;;;;;;;6.17;4.23;;;;;;;;;;5041083;28;20480;-78
2023/08/17 08:08:49;;;;;;;6.17;3.87;;;;;;;;;;5040746;28;20464;-79
2023/08/17 08:11:15;;;;;;;4.07;3.40;;;;;;;;;;5042645;28;20476;-79
2023/08/17 08:13:42;;;;;;;7.33;3.47;;;;;;;;;;5042562;28;20483;-79
2023/08/17 08:16:09;;;;;;;5.17;4.00;;;;;;;;;;5037062;28;20472;-80
2023/08/17 08:18:36;;;;;;;5.10;4.23;;;;;;;;;;5044693;28;20825;-79
2023/08/17 08:21:02;;;;;;;4.67;3.73;;;;;;;;;;5042015;28;20471;-79
2023/08/17 08:23:29;;;;;;;4.33;3.90;;;;;;;;;;5043565;28;20500;-78
2023/08/17 08:25:55;;;;;;;5.07;4.67;;;;;;;;;;5040604;28;20477;-79
2023/08/17 08:28:22;;;;;;;4.67;4.20;;;;;;;;;;5043221;28;20464;-78
2023/08/17 08:30:48;;;;;;;4.07;3.73;;;;;;;;;;5046720;28;20464;-79
2023/08/17 08:33:16;;;;;;;4.90;4.10;;;;;;;;;;5048052;28;22317;-79
2023/08/17 08:35:42;;;;;;;4.20;3.67;;;;;;;;;;5046884;28;20480;-79
2023/08/17 08:38:10;;;;;;;5.17;4.20;;;;;;;;;;5050895;28;20954;-78
2023/08/17 08:40:38;;;;;;;6.83;4.13;;;;;;;;;;5046032;28;20480;-79
2023/08/17 08:43:05;;;;;;;6.50;3.67;;;;;;;;;;5044228;28;20856;-79
2023/08/17 08:45:32;;;;;;;4.67;4.10;;;;;;;;;;5046539;28;20464;-79
2023/08/17 08:48:00;;;;;;;6.47;4.57;;;;;;;;;;5045761;28;20469;-79
2023/08/17 08:50:31;;;;;;;4.00;3.60;;;;;;;;;;5045357;28;20464;-79
2023/08/17 08:52:59;;;;;;;5.93;3.63;;;;;;;;;;5045534;28;20837;-79
2023/08/17 08:55:28;;;;;;;4.80;3.60;;;;;;;;;;5047465;28;20475;-79
2023/08/17 08:57:54;;;;;;;4.00;3.47;;;;;;;;;;5045201;28;21339;-79
2023/08/17 09:00:21;;;;;;;3.10;2.80;;;;;;;;;;5048035;28;20476;-79
2023/08/17 09:02:47;;;;;;;3.90;3.13;;;;;;;;;;5047538;28;20478;-78
2023/08/17 09:05:14;;;;;;;5.17;3.70;;;;;;;;;;5048370;28;20475;-79
2023/08/17 09:07:43;;;;;;;3.23;2.93;;;;;;;;;;5051141;28;20460;-79
2023/08/17 09:10:10;;;;;;;3.70;3.40;;;;;;;;;;5045853;28;20459;-78
2023/08/17 09:12:37;;;;;;;4.50;4.10;;;;;;;;;;5049836;28;20479;-79
2023/08/17 09:15:03;;;;;;;4.63;3.37;;;;;;;;;;5047699;28;20486;-79
2023/08/17 09:17:34;;;;;;;4.13;3.83;;;;;;;;;;5044016;28;20517;-78
2023/08/17 09:20:00;;;;;;;4.30;3.90;;;;;;;;;;5048911;28;20504;-79
2023/08/17 09:22:37;;;;;;;5.40;3.67;;;;;;;;;;5045117;28;20487;-79
2023/08/17 09:25:05;;;;;;;4.67;3.50;;;;;;;;;;5043786;28;20475;-79
2023/08/17 09:27:32;;;;;;;5.53;3.40;;;;;;;;;;5046012;28;20465;-78
2023/08/17 09:30:02;;;;;;;4.40;3.77;;;;;;;;;;5043927;28;20479;-78
2023/08/17 09:32:30;;;;;;;4.97;3.37;;;;;;;;;;5047671;28;20550;-79
2023/08/17 09:34:57;;;;;;;3.53;2.80;;;;;;;;;;5043688;28;20468;-79
2023/08/17 09:37:23;;;;;;;3.20;2.90;;;;;;;;;;5047800;28;20466;-78
2023/08/17 09:39:49;;;;;;;3.47;3.17;;;;;;;;;;5045636;28;20666;-79
2023/08/17 09:42:18;;;;;;;5.43;3.30;;;;;;;;;;5044625;28;20492;-79
2023/08/17 09:44:44;;;;;;;3.17;2.80;;;;;;;;;;5046429;28;20602;-79
2023/08/17 09:47:11;;;;;;;3.63;3.20;;;;;;;;;;5048172;28;20460;-78
2023/08/17 09:49:37;;;;;;;2.57;2.37;;;;;;;;;;5045675;28;20464;-78
2023/08/17 09:52:03;;;;;;;3.03;2.73;;;;;;;;;;5043855;28;20479;-79
2023/08/17 09:54:31;;;;;;;4.70;2.93;;;;;;;;;;5047180;28;20463;-78
2023/08/17 09:56:58;;;;;;;3.40;3.10;;;;;;;;;;5048022;28;20495;-78
2023/08/17 09:59:26;;;;;;;2.67;2.47;;;;;;;;;;5041554;28;20475;-79
2023/08/17 10:01:53;;;;;;;3.27;2.97;;;;;;;;;;5046828;28;20568;-79
2023/08/17 10:04:21;;;;;;;3.20;2.93;;;;;;;;;;5047082;28;20451;-79
2023/08/17 10:06:49;;;;;;;3.03;2.63;;;;;;;;;;5046157;28;20516;-78
2023/08/17 10:09:17;;;;;;;2.77;2.30;;;;;;;;;;5041905;28;20467;-81
2023/08/17 10:11:44;;;;;;;4.33;2.50;;;;;;;;;;5046266;28;20476;-78
2023/08/17 10:14:15;;;;;;;2.83;2.63;;;;;;;;;;5044368;28;20488;-79
2023/08/17 10:16:44;;;;;;;3.47;2.43;;;;;;;;;;5043644;28;20554;-79
2023/08/17 10:19:14;;;;;;;3.33;2.10;;;;;;;;;;5044279;28;20468;-80
2023/08/17 10:21:44;;;;;;;3.40;2.50;;;;;;;;;;5044386;28;20479;-79
2023/08/17 10:24:11;;;;;;;3.47;2.70;;;;;;;;;;5043741;28;20471;-80
2023/08/17 10:26:38;;;;;;;2.60;2.40;;;;;;;;;;5045610;28;20457;-79
2023/08/17 10:29:05;;;;;;;2.20;2.10;;;;;;;;;;5044784;28;20468;-80
2023/08/17 10:31:34;;;;;;;2.70;2.50;;;;;;;;;;5045222;28;20833;-78
2023/08/17 10:34:03;;;;;;;4.20;2.83;;;;;;;;;;5042253;28;20480;-78
2023/08/17 10:36:30;;;;;;;3.00;2.43;;;;;;;;;;5042483;28;20982;-79
2023/08/17 10:39:15;;;;;;;2.33;2.13;;;;;;;;;;5047392;28;20470;-79
2023/08/17 10:41:47;;;;;;;2.87;2.30;;;;;;;;;;5043781;28;20472;-78
2023/08/17 10:44:13;;;;;;;2.27;2.07;;;;;;;;;;5044250;28;20457;-79
2023/08/17 10:46:40;;;;;;;2.60;1.80;;;;;;;;;;5047782;28;20535;-78
2023/08/17 10:49:24;;;;;;;4.10;2.20;;;;;;;;;;5042268;28;21060;-79
2023/08/17 10:52:00;;;;;;;2.60;2.40;;;;;;;;;;5045735;28;20483;-79
2023/08/17 10:54:36;;;;;;;3.03;2.00;;;;;;;;;;5043010;28;20523;-79
2023/08/17 10:57:18;;;;;;;3.90;2.00;;;;;;;;;;5044546;28;20448;-79
2023/08/17 10:59:44;;;;;;;3.20;1.83;;;;;;;;;;5043141;28;20491;-79
2023/08/17 11:02:11;;;;;;;5.70;2.27;;;;;;;;;;5041973;28;20557;-78
2023/08/17 11:04:42;;;;;;;5.57;1.77;;;;;;;;;;5041500;28;20463;-79
2023/08/17 11:07:14;;;;;;;2.33;1.90;;;;;;;;;;5042809;28;20448;-78
2023/08/17 11:09:43;;;;;;;2.20;2.00;;;;;;;;;;5044416;28;20475;-79
2023/08/17 11:12:25;;;;;;;3.37;2.30;;;;;;;;;;5043666;28;20476;-79
2023/08/17 11:14:52;;;;;;;3.57;2.30;;;;;;;;;;5048082;28;20475;-79
2023/08/17 11:17:20;;;;;;;4.73;2.80;;;;;;;;;;5044504;28;20464;-79
2023/08/17 11:19:51;;;;;;;2.83;2.03;;;;;;;;;;5041529;28;21002;-79
2023/08/17 11:22:17;;;;;;;2.40;2.00;;;;;;;;;;5043288;28;20464;-79
2023/08/17 11:24:44;;;;;;;2.50;2.17;;;;;;;;;;5040499;28;20989;-79
2023/08/17 11:27:10;;;;;;;4.17;2.23;;;;;;;;;;5045969;28;20466;-78
2023/08/17 11:29:36;;;;;;;2.50;2.30;;;;;;;;;;5042885;28;20468;-79
2023/08/17 11:32:04;;;;;;;2.70;2.10;;;;;;;;;;5045888;28;20483;-79
2023/08/17 11:34:30;;;;;;;2.60;2.40;;;;;;;;;;5043176;28;20502;-79
2023/08/17 11:36:59;;;;;;;3.37;2.50;;;;;;;;;;5041474;28;20946;-78
2023/08/17 11:39:25;;;;;;;3.00;2.37;;;;;;;;;;5044072;28;20463;-79
2023/08/17 11:41:52;;;;;;;3.43;2.13;;;;;;;;;;5041957;28;20535;-79
2023/08/17 11:44:20;;;;;;;3.07;2.03;;;;;;;;;;5045837;28;20992;-79
2023/08/17 11:46:46;;;;;;;2.33;2.13;;;;;;;;;;5043125;28;20947;-79
2023/08/17 11:49:14;;;;;;;2.80;2.50;;;;;;;;;;5040388;28;20992;-80
2023/08/17 11:51:41;;;;;;;2.53;2.33;;;;;;;;;;5042827;28;20481;-79
2023/08/17 11:54:09;;;;;;;4.37;2.30;;;;;;;;;;5045268;28;20452;-79
2023/08/17 11:56:36;;;;;;;4.90;2.20;;;;;;;;;;5046813;28;20453;-79
2023/08/17 11:59:09;;;;;;;3.77;2.57;;;;;;;;;;5043244;28;20457;-81
2023/08/17 12:01:36;;;;;;;1.83;1.73;;;;;;;;;;5042979;28;20959;-79
2023/08/17 12:04:05;;;;;;;2.87;1.97;;;;;;;;;;5043343;28;20455;-80
2023/08/17 12:06:31;;;;;;;4.10;2.50;;;;;;;;;;5046639;28;20460;-79
2023/08/17 12:08:58;;;;;;;3.90;2.23;;;;;;;;;;5040759;28;20462;-79
2023/08/17 12:11:26;;;;;;;2.77;2.13;;;;;;;;;;5039980;28;20479;-79
2023/08/17 12:13:53;;;;;;;2.30;1.93;;;;;;;;;;5045123;28;20462;-79
2023/08/17 12:16:20;;;;;;;3.77;2.33;;;;;;;;;;5039846;28;20490;-79
2023/08/17 12:18:48;;;;;;;2.27;2.07;;;;;;;;;;5044936;28;20461;-79
2023/08/17 12:21:14;;;;;;;7.57;2.60;;;;;;;;;;5041025;28;20576;-79
2023/08/17 12:23:42;;;;;;;3.00;2.40;;;;;;;;;;5043998;28;20992;-79
2023/08/17 12:26:08;;;;;;;3.53;3.10;;;;;;;;;;5042847;28;20595;-79
2023/08/17 12:28:36;;;;;;;3.17;2.97;;;;;;;;;;5040686;28;20472;-79
2023/08/17 12:31:03;;;;;;;2.73;2.53;;;;;;;;;;5044666;28;20476;-79
2023/08/17 12:33:29;;;;;;;3.17;2.97;;;;;;;;;;5044625;28;20488;-79
2023/08/17 12:35:56;;;;;;;3.43;3.20;;;;;;;;;;5044867;28;20476;-79
2023/08/17 12:38:23;;;;;;;4.07;3.67;;;;;;;;;;5045950;28;20460;-79
2023/08/17 12:40:50;;;;;;;3.67;3.33;;;;;;;;;;5043715;28;20480;-79
2023/08/17 12:43:17;;;;;;;5.10;3.93;;;;;;;;;;5045696;28;20486;-79
2023/08/17 12:45:44;;;;;;;4.57;4.17;;;;;;;;;;5045792;28;20494;-79
2023/08/17 12:48:11;;;;;;;6.20;4.10;;;;;;;;;;5042296;28;20453;-79
2023/08/17 12:50:37;;;;;;;5.93;4.07;;;;;;;;;;5043662;28;20472;-79
2023/08/17 12:53:03;;;;;;;4.23;3.90;;;;;;;;;;5042413;28;20476;-79
2023/08/17 12:55:30;;;;;;;5.17;4.77;;;;;;;;;;5042158;28;20841;-79
2023/08/17 12:57:56;;;;;;;6.77;4.37;;;;;;;;;;5038879;28;20496;-79
2023/08/17 13:00:23;;;;;;;6.90;4.83;;;;;;;;;;5043416;28;20506;-79
2023/08/17 13:02:51;;;;;;;5.43;5.00;;;;;;;;;;5043943;28;20475;-79
2023/08/17 13:05:17;;;;;;;5.40;4.90;;;;;;;;;;5043883;28;20496;-79
2023/08/17 13:07:45;;;;;;;6.60;5.87;;;;;;;;;;5044587;28;20472;-78
2023/08/17 13:10:11;;;;;;;6.10;5.50;;;;;;;;;;5040609;28;20546;-79
2023/08/17 13:12:38;;;;;;;6.90;6.20;;;;;;;;;;5040411;28;20482;-79
2023/08/17 13:15:05;;;;;;;6.70;6.10;;;;;;;;;;5044873;28;20472;-79
2023/08/17 13:17:33;;;;;;;6.80;6.20;;;;;;;;;;5048305;28;20467;-79
2023/08/17 13:20:01;;;;;;;9.13;7.17;;;;;;;;;;5047953;28;20471;-80
2023/08/17 13:22:27;;;;;;;7.20;6.60;;;;;;;;;;5047467;28;20570;-79
2023/08/17 13:24:54;;;;;;;7.77;7.07;;;;;;;;;;5047663;28;20473;-79
2023/08/17 13:27:20;;;;;;;7.67;7.00;;;;;;;;;;5044934;28;20494;-79
2023/08/17 13:29:47;;;;;;;8.50;7.70;;;;;;;;;;5048171;28;20484;-78
2023/08/17 13:32:13;;;;;;;8.67;7.97;;;;;;;;;;5047214;28;20488;-79
2023/08/17 13:34:46;;;;;;;10.10;9.20;;;;;;;;;;5045860;28;20571;-80
2023/08/17 13:37:14;;;;;;;7.93;6.90;;;;;;;;;;5048176;28;20463;-78
2023/08/17 13:39:40;;;;;;;5.17;4.73;;;;;;;;;;5046332;28;20827;-79
2023/08/17 13:42:06;;;;;;;3.40;3.13;;;;;;;;;;5048218;28;20475;-79
2023/08/17 13:44:33;;;;;;;4.03;3.30;;;;;;;;;;5044886;28;20464;-79
2023/08/17 13:46:59;;;;;;;3.70;3.33;;;;;;;;;;5048956;28;20460;-79
2023/08/17 13:49:27;;;;;;;2.20;1.87;;;;;;;;;;5043585;28;20977;-79
2023/08/17 13:51:54;;;;;;;1.67;1.40;;;;;;;;;;5047754;28;20482;-79
2023/08/17 13:54:21;;;;;;;1.37;1.27;;;;;;;;;;5050038;28;20468;-79
2023/08/17 13:56:48;;;;;;;2.10;1.60;;;;;;;;;;5044301;28;20896;-79
2023/08/17 13:59:14;;;;;;;1.80;1.53;;;;;;;;;;5044948;28;20463;-79
2023/08/17 14:01:41;;;;;;;1.50;1.40;;;;;;;;;;5047623;28;20487;-79
2023/08/17 14:04:11;;;;;;;1.77;1.20;;;;;;;;;;5046805;28;21016;-80
2023/08/17 14:06:37;;;;;;;1.60;1.03;;;;;;;;;;5046846;28;20543;-79
2023/08/17 14:09:04;;;;;;;2.53;1.17;;;;;;;;;;5045615;28;20460;-80
2023/08/17 14:11:32;;;;;;;2.97;1.83;;;;;;;;;;5045502;28;20464;-79
2023/08/17 14:13:58;;;;;;;1.40;1.30;;;;;;;;;;5044554;28;20467;-79
2023/08/17 14:16:24;;;;;;;1.23;1.03;;;;;;;;;;5043882;28;21044;-79
2023/08/17 14:18:51;;;;;;;2.00;1.40;;;;;;;;;;5043869;28;20452;-79
2023/08/17 14:21:17;;;;;;;1.60;1.50;;;;;;;;;;5045483;28;21022;-79
2023/08/17 14:23:44;;;;;;;1.10;0.93;;;;;;;;;;5048760;28;20464;-80
2023/08/17 14:26:10;;;;;;;1.70;1.33;;;;;;;;;;5044741;28;20477;-79
2023/08/17 14:28:38;;;;;;;1.70;1.60;;;;;;;;;;5044833;28;20498;-79
2023/08/17 14:31:04;;;;;;;1.43;1.30;;;;;;;;;;5039469;28;20472;-79
2023/08/17 14:33:31;;;;;;;2.30;1.57;;;;;;;;;;5042133;28;20490;-79
2023/08/17 14:35:57;;;;;;;1.90;1.40;;;;;;;;;;5041553;28;20506;-79
2023/08/17 14:38:23;;;;;;;1.60;1.37;;;;;;;;;;5047788;28;20456;-79
2023/08/17 14:40:50;;;;;;;1.40;1.30;;;;;;;;;;5044362;28;20468;-79
2023/08/17 14:43:16;;;;;;;1.70;1.40;;;;;;;;;;5042571;28;20522;-79